Time,TemperatureF,DewpointF,PressureIn,WindDirection,WindDirectionDegrees,WindSpeedMPH,WindSpeedGustMPH,Humidity,HourlyPrecipIn,Conditions,Clouds,dailyrainin,SoftwareType,DateUTC
2013-01-10 00:01:00,52.8,52.8,30.40,NNE,29,1.0,4.0,100,0.00,,-RA,0.00,VWS V14.01,2013-01-10 06:01:00,
2013-01-10 00:06:00,52.8,52.8,30.40,NE,50,1.0,5.0,100,0.00,,-RA,0.00,VWS V14.01,2013-01-10 06:06:00,
2013-01-10 00:11:00,52.9,52.9,30.40,NE,36,0.0,4.0,100,0.00,,-RA,0.00,VWS V14.01,2013-01-10 06:11:00,
2013-01-10 00:16:00,52.9,52.9,30.40,NE,38,3.0,4.0,100,0.00,,-RA,0.00,VWS V14.01,2013-01-10 06:16:00,
2013-01-10 00:21:00,52.9,52.9,30.40,NNE,31,2.0,7.0,100,0.00,,-RA,0.00,VWS V14.01,2013-01-10 06:21:00,
2013-01-10 00:26:00,52.9,52.9,30.40,NE,41,4.0,6.0,100,0.00,,-RA,0.00,VWS V14.01,2013-01-10 06:26:00,
2013-01-10 00:31:00,52.8,52.8,30.39,NE,53,5.0,8.0,100,0.00,,-RA,0.00,VWS V14.01,2013-01-10 06:31:00,
2013-01-10 00:36:00,52.8,52.8,30.39,NE,38,1.0,6.0,100,0.01,,-RA,0.01,VWS V14.01,2013-01-10 06:36:00,
2013-01-10 00:41:00,52.8,52.8,30.39,NE,46,6.0,7.0,100,0.01,,-RA,0.01,VWS V14.01,2013-01-10 06:41:00,
2013-01-10 00:46:00,52.8,52.8,30.39,NE,40,1.0,6.0,100,0.01,,-RA,0.01,VWS V14.01,2013-01-10 06:46:00,
2013-01-10 00:51:00,52.9,52.9,30.39,NE,36,3.0,5.0,100,0.01,,-RA,0.01,VWS V14.01,2013-01-10 06:51:00,
2013-01-10 00:56:00,53.0,53.0,30.39,NE,52,5.0,8.0,100,0.02,,-RA,0.02,VWS V14.01,2013-01-10 06:56:00,
2013-01-10 01:01:00,53.1,53.1,30.39,NE,35,6.0,9.0,100,0.02,,-RA,0.02,VWS V14.01,2013-01-10 07:01:00,
2013-01-10 01:06:00,53.2,53.2,30.39,NE,47,2.0,7.0,100,0.02,,-RA,0.02,VWS V14.01,2013-01-10 07:06:00,
2013-01-10 01:11:00,53.3,53.3,30.39,NE,39,2.0,5.0,100,0.02,,-RA,0.02,VWS V14.01,2013-01-10 07:11:00,
2013-01-10 01:16:00,53.3,53.3,30.39,NE,54,0.0,5.0,100,0.02,,-RA,0.02,VWS V14.01,2013-01-10 07:16:00,
2013-01-10 01:21:00,53.4,53.4,30.39,NE,35,1.0,7.0,100,0.02,,-RA,0.02,VWS V14.01,2013-01-10 07:21:00,
2013-01-10 01:26:00,53.4,53.4,30.38,NE,47,0.0,6.0,100,0.02,,-RA,0.02,VWS V14.01,2013-01-10 07:26:00,
2013-01-10 01:31:00,53.5,53.5,30.39,NE,54,3.0,5.0,100,0.02,,-RA,0.02,VWS V14.01,2013-01-10 07:31:00,
2013-01-10 01:36:00,53.5,53.5,30.39,NE,36,0.0,5.0,100,0.02,,-RA,0.02,VWS V14.01,2013-01-10 07:36:00,
2013-01-10 01:41:00,53.5,53.5,30.39,NE,50,2.0,5.0,100,0.01,,-RA,0.02,VWS V14.01,2013-01-10 07:41:00,
2013-01-10 01:46:00,53.5,53.5,30.38,NE,56,3.0,6.0,100,0.01,,-RA,0.02,VWS V14.01,2013-01-10 07:46:00,
2013-01-10 01:51:00,53.5,53.5,30.38,NE,50,0.0,4.0,100,0.01,,-RA,0.02,VWS V14.01,2013-01-10 07:51:00,
2013-01-10 01:56:00,53.6,53.6,30.38,NE,37,0.0,4.0,100,0.00,,-RA,0.02,VWS V14.01,2013-01-10 07:56:00,
2013-01-10 02:01:00,53.6,53.6,30.39,NE,40,0.0,0.0,100,0.02,,-RA,0.04,VWS V14.01,2013-01-10 08:01:00,
2013-01-10 02:06:00,53.7,53.7,30.39,NE,43,3.0,3.0,100,0.05,,-RA,0.07,VWS V14.01,2013-01-10 08:06:00,
2013-01-10 02:11:00,53.7,53.7,30.39,NE,37,0.0,0.0,100,0.07,,-RA,0.09,VWS V14.01,2013-01-10 08:11:00,
2013-01-10 02:16:00,53.8,53.8,30.39,NE,37,0.0,0.0,100,0.10,,-RA,0.12,VWS V14.01,2013-01-10 08:16:00,
2013-01-10 02:21:00,53.9,53.9,30.39,NE,37,0.0,0.0,100,0.12,,-RA,0.14,VWS V14.01,2013-01-10 08:21:00,
2013-01-10 02:26:00,53.9,53.9,30.39,NE,46,2.0,6.0,100,0.14,,-RA,0.16,VWS V14.01,2013-01-10 08:26:00,
2013-01-10 02:31:00,53.9,53.9,30.39,NE,46,0.0,2.0,100,0.15,,-RA,0.17,VWS V14.01,2013-01-10 08:31:00,
2013-01-10 02:36:00,53.8,53.8,30.39,NE,46,0.0,4.0,100,0.16,,-RA,0.18,VWS V14.01,2013-01-10 08:36:00,
2013-01-10 02:41:00,53.8,53.8,30.39,NE,36,0.0,3.0,100,0.17,,-RA,0.19,VWS V14.01,2013-01-10 08:41:00,
2013-01-10 02:46:00,53.9,53.9,30.38,NNE,29,3.0,6.0,100,0.17,,-RA,0.19,VWS V14.01,2013-01-10 08:46:00,
2013-01-10 02:51:00,53.8,53.8,30.38,NE,43,0.0,4.0,100,0.17,,-RA,0.19,VWS V14.01,2013-01-10 08:51:00,
2013-01-10 02:56:00,53.8,53.8,30.38,NE,43,3.0,4.0,100,0.17,,-RA,0.19,VWS V14.01,2013-01-10 08:56:00,
2013-01-10 03:01:00,53.7,53.7,30.37,NE,43,0.0,3.0,100,0.15,, +RA,0.19,VWS V14.01,2013-01-10 09:01:00,
2013-01-10 03:06:00,53.7,53.7,30.37,NE,42,2.0,4.0,100,0.13,, +RA,0.19,VWS V14.01,2013-01-10 09:06:00,
2013-01-10 03:11:00,53.6,53.6,30.37,NNE,30,5.0,5.0,100,0.10,, +RA,0.19,VWS V14.01,2013-01-10 09:11:00,
2013-01-10 03:16:00,53.6,53.6,30.37,NE,36,1.0,1.0,100,0.08,, +RA,0.19,VWS V14.01,2013-01-10 09:16:00,
2013-01-10 03:21:00,53.6,53.6,30.37,NE,40,1.0,4.0,100,0.06,, +RA,0.20,VWS V14.01,2013-01-10 09:21:00,
2013-01-10 03:26:00,53.5,53.5,30.36,NE,45,0.0,3.0,100,0.04,, +RA,0.20,VWS V14.01,2013-01-10 09:26:00,
2013-01-10 03:31:00,53.5,53.5,30.36,NE,45,0.0,0.0,100,0.03,, +RA,0.20,VWS V14.01,2013-01-10 09:31:00,
2013-01-10 03:36:00,53.4,53.4,30.36,NE,45,0.0,0.0,100,0.03,,-RA,0.20,VWS V14.01,2013-01-10 09:36:00,
2013-01-10 03:41:00,53.4,53.4,30.36,NE,44,0.0,0.0,100,0.02,,-RA,0.20,VWS V14.01,2013-01-10 09:41:00,
2013-01-10 03:46:00,53.4,53.4,30.35,NE,45,0.0,0.0,100,0.01,,-RA,0.20,VWS V14.01,2013-01-10 09:46:00,
2013-01-10 03:51:00,53.4,53.4,30.35,NE,45,0.0,0.0,100,0.01,,-RA,0.20,VWS V14.01,2013-01-10 09:51:00,
2013-01-10 03:56:00,53.4,53.4,30.35,NE,45,0.0,0.0,100,0.01,,-RA,0.20,VWS V14.01,2013-01-10 09:56:00,
2013-01-10 04:01:00,53.4,53.4,30.35,NE,44,0.0,0.0,100,0.01,,,0.20,VWS V14.01,2013-01-10 10:01:00,
2013-01-10 04:06:00,53.4,53.4,30.35,NE,44,0.0,0.0,100,0.01,,,0.20,VWS V14.01,2013-01-10 10:06:00,
2013-01-10 04:11:00,53.6,53.6,30.34,NE,45,0.0,0.0,100,0.01,,,0.20,VWS V14.01,2013-01-10 10:11:00,
2013-01-10 04:16:00,53.7,53.7,30.34,NE,45,0.0,0.0,100,0.01,, +RA,0.20,VWS V14.01,2013-01-10 10:16:00,
2013-01-10 04:21:00,53.8,53.8,30.34,NE,45,0.0,0.0,100,0.00,, +RA,0.20,VWS V14.01,2013-01-10 10:21:00,
2013-01-10 04:26:00,53.9,53.9,30.35,NE,45,0.0,0.0,100,0.00,,,0.20,VWS V14.01,2013-01-10 10:26:00,
2013-01-10 04:31:00,54.0,54.0,30.35,NE,45,0.0,0.0,100,0.00,,,0.20,VWS V14.01,2013-01-10 10:31:00,
2013-01-10 04:36:00,54.1,54.1,30.34,NE,45,0.0,0.0,100,0.00,,,0.20,VWS V14.01,2013-01-10 10:36:00,
2013-01-10 04:41:00,54.1,54.1,30.34,NE,45,0.0,0.0,100,0.00,,,0.20,VWS V14.01,2013-01-10 10:41:00,
2013-01-10 04:46:00,54.1,54.1,30.34,NE,45,0.0,0.0,100,0.01,,,0.21,VWS V14.01,2013-01-10 10:46:00,
2013-01-10 04:51:00,54.2,54.2,30.34,NE,45,0.0,0.0,100,0.01,,,0.21,VWS V14.01,2013-01-10 10:51:00,
2013-01-10 04:56:00,54.3,54.3,30.33,NE,45,0.0,0.0,100,0.02,,,0.22,VWS V14.01,2013-01-10 10:56:00,
2013-01-10 05:01:00,54.5,54.5,30.33,NE,45,0.0,0.0,100,0.02,,OVC005,0.22,VWS V14.01,2013-01-10 11:01:00,
2013-01-10 05:06:00,54.5,54.5,30.34,NE,45,0.0,0.0,100,0.02,,OVC005,0.22,VWS V14.01,2013-01-10 11:06:00,
2013-01-10 05:11:00,54.5,54.5,30.34,NE,45,0.0,0.0,100,0.02,,OVC005,0.22,VWS V14.01,2013-01-10 11:11:00,
2013-01-10 05:16:00,54.5,54.5,30.33,NE,45,0.0,0.0,100,0.02,,OVC005,0.22,VWS V14.01,2013-01-10 11:16:00,
2013-01-10 05:21:00,54.5,54.5,30.33,NE,44,0.0,0.0,100,0.02,,OVC005,0.22,VWS V14.01,2013-01-10 11:21:00,
2013-01-10 05:26:00,54.6,54.6,30.33,NE,44,0.0,0.0,100,0.03,,OVC005,0.23,VWS V14.01,2013-01-10 11:26:00,
2013-01-10 05:31:00,54.6,54.6,30.33,NE,45,2.0,2.0,100,0.04,,OVC005,0.24,VWS V14.01,2013-01-10 11:31:00,
2013-01-10 05:36:00,54.7,54.7,30.33,NE,45,0.0,0.0,100,0.05,,OVC005,0.25,VWS V14.01,2013-01-10 11:36:00,
2013-01-10 05:41:00,54.8,54.8,30.32,NE,45,1.0,2.0,100,0.05,,OVC005,0.25,VWS V14.01,2013-01-10 11:41:00,
2013-01-10 05:46:00,54.9,54.9,30.32,NE,45,1.0,3.0,100,0.04,,OVC005,0.25,VWS V14.01,2013-01-10 11:46:00,
2013-01-10 05:51:00,55.0,55.0,30.32,NE,45,0.0,0.0,100,0.04,,OVC005,0.25,VWS V14.01,2013-01-10 11:51:00,
2013-01-10 05:56:00,55.0,55.0,30.33,ENE,63,0.0,2.0,100,0.03,,OVC005,0.25,VWS V14.01,2013-01-10 11:56:00,
2013-01-10 06:01:00,55.1,55.1,30.33,ENE,63,0.0,0.0,100,0.03,,-RA,0.25,VWS V14.01,2013-01-10 12:01:00,
2013-01-10 06:06:00,55.0,55.0,30.33,ENE,63,0.0,0.0,100,0.03,,-RA,0.25,VWS V14.01,2013-01-10 12:06:00,
2013-01-10 06:11:00,55.0,55.0,30.33,ENE,63,0.0,0.0,100,0.03,,-RA,0.25,VWS V14.01,2013-01-10 12:11:00,
2013-01-10 06:16:00,55.0,55.0,30.33,ENE,63,0.0,0.0,100,0.03,,-RA,0.25,VWS V14.01,2013-01-10 12:16:00,
2013-01-10 06:21:00,55.0,55.0,30.33,ENE,63,0.0,0.0,100,0.03,,-RA,0.25,VWS V14.01,2013-01-10 12:21:00,
2013-01-10 06:26:00,54.9,54.9,30.33,ENE,63,0.0,0.0,100,0.02,,-RA,0.25,VWS V14.01,2013-01-10 12:26:00,
2013-01-10 06:31:00,54.9,54.9,30.33,ENE,63,0.0,0.0,100,0.01,,-RA,0.25,VWS V14.01,2013-01-10 12:31:00,
2013-01-10 06:36:00,54.9,54.9,30.33,ENE,63,0.0,0.0,100,0.00,,-RA,0.25,VWS V14.01,2013-01-10 12:36:00,
2013-01-10 06:41:00,54.9,54.9,30.33,ENE,63,0.0,0.0,100,0.00,,-RA,0.25,VWS V14.01,2013-01-10 12:41:00,
2013-01-10 06:46:00,54.9,54.9,30.33,ENE,63,0.0,0.0,100,0.00,,-RA,0.25,VWS V14.01,2013-01-10 12:46:00,
2013-01-10 06:51:00,55.0,55.0,30.33,ENE,63,0.0,0.0,100,0.00,,-RA,0.25,VWS V14.01,2013-01-10 12:51:00,
2013-01-10 06:56:00,55.0,55.0,30.33,ENE,63,0.0,0.0,100,0.00,,-RA,0.25,VWS V14.01,2013-01-10 12:56:00,
2013-01-10 07:01:00,55.0,55.0,30.32,ENE,63,0.0,0.0,100,0.00,,OVC026,0.25,VWS V14.01,2013-01-10 13:01:00,
2013-01-10 07:06:00,54.9,54.9,30.33,ENE,63,0.0,0.0,100,0.00,,OVC026,0.25,VWS V14.01,2013-01-10 13:06:00,
2013-01-10 07:11:00,55.1,55.1,30.33,ENE,63,0.0,0.0,100,0.00,,OVC026,0.25,VWS V14.01,2013-01-10 13:11:00,
2013-01-10 07:16:00,55.2,55.2,30.33,ENE,63,0.0,0.0,100,0.00,,OVC026,0.25,VWS V14.01,2013-01-10 13:16:00,
2013-01-10 07:20:00,55.3,55.3,30.33,ENE,63,0.0,0.0,100,0.00,,OVC026,0.25,VWS V14.01,2013-01-10 13:20:00,
2013-01-10 07:25:00,55.3,55.3,30.33,ENE,63,0.0,0.0,100,0.00,,OVC026,0.25,VWS V14.01,2013-01-10 13:25:00,
2013-01-10 07:31:00,55.2,55.2,30.33,ENE,63,0.0,0.0,100,0.00,,OVC026,0.25,VWS V14.01,2013-01-10 13:31:00,
2013-01-10 07:36:00,55.3,55.3,30.33,ENE,63,0.0,0.0,100,0.00,,OVC026,0.25,VWS V14.01,2013-01-10 13:36:00,
2013-01-10 07:41:00,55.5,55.5,30.33,ENE,63,0.0,1.0,100,0.00,,OVC026,0.25,VWS V14.01,2013-01-10 13:41:00,
2013-01-10 07:46:00,55.7,55.7,30.33,ENE,65,0.0,0.0,100,0.00,,OVC026,0.25,VWS V14.01,2013-01-10 13:46:00,
2013-01-10 07:51:00,55.9,55.9,30.33,ENE,65,0.0,0.0,100,0.00,,OVC026,0.25,VWS V14.01,2013-01-10 13:51:00,
2013-01-10 07:56:00,56.1,56.1,30.33,SE,124,0.0,4.0,100,0.00,,OVC026,0.25,VWS V14.01,2013-01-10 13:56:00,
2013-01-10 08:01:00,56.2,56.2,30.33,SE,124,0.0,0.0,100,0.00,,OVC018,0.25,VWS V14.01,2013-01-10 14:01:00,
2013-01-10 08:05:00,56.4,56.4,30.33,ESE,109,1.0,2.0,100,0.00,,OVC018,0.25,VWS V14.01,2013-01-10 14:05:00,
2013-01-10 08:11:00,56.5,56.5,30.33,ESE,123,3.0,3.0,100,0.00,,OVC018,0.25,VWS V14.01,2013-01-10 14:11:00,
2013-01-10 08:16:00,56.6,56.6,30.33,ESE,115,0.0,2.0,100,0.00,,OVC018,0.25,VWS V14.01,2013-01-10 14:16:00,
2013-01-10 08:21:00,56.7,56.7,30.33,ESE,122,2.0,2.0,100,0.00,,OVC018,0.25,VWS V14.01,2013-01-10 14:21:00,
2013-01-10 08:25:00,56.8,56.8,30.34,SE,145,0.0,1.0,100,0.00,,OVC018,0.25,VWS V14.01,2013-01-10 14:25:00,
2013-01-10 08:30:00,56.9,56.9,30.34,SE,128,0.0,0.0,100,0.00,,OVC018,0.25,VWS V14.01,2013-01-10 14:30:00,
2013-01-10 08:35:00,56.9,56.9,30.34,SE,142,0.0,0.0,100,0.00,,OVC018,0.25,VWS V14.01,2013-01-10 14:35:00,
2013-01-10 08:40:00,57.0,56.7,30.34,SE,143,1.0,2.0,99,0.00,,OVC018,0.25,VWS V14.01,2013-01-10 14:40:00,
2013-01-10 08:45:00,57.1,56.8,30.34,SSE,148,0.0,0.0,99,0.00,,OVC018,0.25,VWS V14.01,2013-01-10 14:45:00,
2013-01-10 08:50:00,57.1,56.8,30.34,SSE,148,0.0,0.0,99,0.00,,OVC018,0.25,VWS V14.01,2013-01-10 14:50:00,
2013-01-10 08:55:00,57.2,56.9,30.34,SSE,148,0.0,0.0,99,0.00,,OVC018,0.25,VWS V14.01,2013-01-10 14:55:00,
2013-01-10 09:00:00,57.3,57.0,30.34,SSE,150,0.0,0.0,99,0.00,,OVC018,0.25,VWS V14.01,2013-01-10 15:00:00,
2013-01-10 09:05:00,57.4,57.1,30.34,SE,133,1.0,2.0,99,0.00,,OVC018,0.25,VWS V14.01,2013-01-10 15:05:00,
2013-01-10 09:10:00,57.4,56.8,30.34,SE,133,0.0,0.0,98,0.00,,OVC018,0.25,VWS V14.01,2013-01-10 15:10:00,
2013-01-10 09:15:00,57.5,56.9,30.34,SSE,147,0.0,0.0,98,0.00,,OVC018,0.25,VWS V14.01,2013-01-10 15:15:00,
2013-01-10 09:20:00,57.6,57.0,30.34,SE,134,0.0,0.0,98,0.00,,OVC018,0.25,VWS V14.01,2013-01-10 15:20:00,
2013-01-10 09:25:00,57.7,57.1,30.34,SE,131,0.0,3.0,98,0.00,,OVC018,0.25,VWS V14.01,2013-01-10 15:25:00,
2013-01-10 09:30:00,57.8,57.2,30.34,SE,132,0.0,0.0,98,0.00,,OVC018,0.25,VWS V14.01,2013-01-10 15:30:00,
2013-01-10 09:35:00,57.9,57.6,30.34,SE,132,0.0,0.0,99,0.00,,OVC018,0.25,VWS V14.01,2013-01-10 15:35:00,
2013-01-10 09:40:00,58.0,57.7,30.34,SSE,151,0.0,0.0,99,0.00,,OVC018,0.25,VWS V14.01,2013-01-10 15:40:00,
2013-01-10 09:45:00,58.1,57.5,30.34,SSE,148,2.0,7.0,98,0.00,,OVC018,0.25,VWS V14.01,2013-01-10 15:45:00,
2013-01-10 09:50:00,58.1,57.5,30.34,SSE,150,0.0,0.0,98,0.00,,OVC018,0.25,VWS V14.01,2013-01-10 15:50:00,
2013-01-10 09:55:00,58.1,57.5,30.34,SSE,151,2.0,2.0,98,0.00,,OVC018,0.25,VWS V14.01,2013-01-10 15:55:00,
2013-01-10 10:00:00,58.3,57.7,30.34,SSE,161,0.0,4.0,98,0.00,,BKN046,0.25,VWS V14.01,2013-01-10 16:00:00,
2013-01-10 10:05:00,58.4,57.8,30.33,SSE,153,2.0,2.0,98,0.00,,BKN046,0.25,VWS V14.01,2013-01-10 16:05:00,
2013-01-10 10:10:00,58.5,57.9,30.33,SSE,149,5.0,8.0,98,0.00,,BKN046,0.25,VWS V14.01,2013-01-10 16:10:00,
2013-01-10 10:15:00,58.6,57.8,30.32,SSE,153,0.0,6.0,97,0.00,,OVC046,0.25,VWS V14.01,2013-01-10 16:15:00,
2013-01-10 10:20:00,58.8,58.0,30.32,SE,137,2.0,5.0,97,0.00,,OVC046,0.25,VWS V14.01,2013-01-10 16:20:00,
2013-01-10 10:25:00,58.9,58.0,30.32,SSE,154,0.0,0.0,97,0.00,,OVC046,0.25,VWS V14.01,2013-01-10 16:25:00,
2013-01-10 10:30:00,59.0,58.2,30.32,WSW,237,0.0,3.0,97,0.00,,OVC046,0.25,VWS V14.01,2013-01-10 16:30:00,
2013-01-10 10:35:00,59.1,58.2,30.32,SSE,161,0.0,1.0,97,0.00,,OVC046,0.25,VWS V14.01,2013-01-10 16:35:00,
2013-01-10 10:40:00,59.2,58.3,30.32,SSE,151,0.0,0.0,97,0.00,,OVC046,0.25,VWS V14.01,2013-01-10 16:40:00,
2013-01-10 10:45:00,59.3,58.5,30.31,SSE,158,0.0,0.0,97,0.00,,OVC046,0.25,VWS V14.01,2013-01-10 16:45:00,
2013-01-10 10:50:00,59.4,58.5,30.31,SSE,149,6.0,7.0,97,0.00,,OVC046,0.25,VWS V14.01,2013-01-10 16:50:00,
2013-01-10 10:55:00,59.4,58.5,30.31,SSE,157,7.0,7.0,97,0.00,,OVC046,0.25,VWS V14.01,2013-01-10 16:55:00,
2013-01-10 11:00:00,59.5,58.4,30.30,SSE,154,0.0,0.0,96,0.00,,OVC016,0.25,VWS V14.01,2013-01-10 17:00:00,
2013-01-10 11:05:00,59.6,58.8,30.30,SSE,154,5.0,8.0,97,0.00,,OVC016,0.25,VWS V14.01,2013-01-10 17:05:00,
2013-01-10 11:10:00,59.7,58.8,30.30,SSE,157,4.0,6.0,97,0.00,,OVC016,0.25,VWS V14.01,2013-01-10 17:10:00,
2013-01-10 11:15:00,59.7,58.6,30.30,SE,137,4.0,6.0,96,0.00,,OVC016,0.25,VWS V14.01,2013-01-10 17:15:00,
2013-01-10 11:20:00,59.8,59.0,30.29,SSE,158,6.0,6.0,97,0.00,,OVC016,0.25,VWS V14.01,2013-01-10 17:20:00,
2013-01-10 11:25:00,59.9,58.8,30.29,SSE,156,0.0,5.0,96,0.00,,OVC016,0.25,VWS V14.01,2013-01-10 17:25:00,
2013-01-10 11:30:00,60.0,59.2,30.28,SSE,147,5.0,6.0,97,0.00,,OVC016,0.25,VWS V14.01,2013-01-10 17:30:00,
2013-01-10 11:35:00,60.2,59.1,30.28,SSE,148,2.0,3.0,96,0.00,,OVC016,0.25,VWS V14.01,2013-01-10 17:35:00,
2013-01-10 11:40:00,60.2,59.1,30.28,SSE,159,5.0,6.0,96,0.00,,OVC016,0.25,VWS V14.01,2013-01-10 17:40:00,
2013-01-10 11:45:00,60.4,59.0,30.28,SSE,151,5.0,7.0,95,0.00,,OVC016,0.25,VWS V14.01,2013-01-10 17:45:00,
2013-01-10 11:50:00,60.5,59.1,30.28,SSE,167,0.0,0.0,95,0.00,,OVC016,0.25,VWS V14.01,2013-01-10 17:50:00,
2013-01-10 11:55:00,60.6,59.5,30.28,SSE,168,0.0,1.0,96,0.00,,OVC016,0.25,VWS V14.01,2013-01-10 17:55:00,
2013-01-10 12:00:00,60.7,59.3,30.27,SSE,165,4.0,7.0,95,0.00,,OVC013,0.25,VWS V14.01,2013-01-10 18:00:00,
2013-01-10 12:05:00,60.8,59.4,30.27,South,182,1.0,5.0,95,0.00,,OVC013,0.25,VWS V14.01,2013-01-10 18:05:00,
2013-01-10 12:10:00,60.9,59.8,30.27,SSE,166,0.0,2.0,96,0.00,,OVC013,0.25,VWS V14.01,2013-01-10 18:10:00,
2013-01-10 12:15:00,61.0,59.9,30.26,SSW,205,0.0,0.0,96,0.00,,OVC013,0.25,VWS V14.01,2013-01-10 18:15:00,
2013-01-10 12:20:00,61.1,60.0,30.26,SSE,162,4.0,4.0,96,0.00,,OVC013,0.25,VWS V14.01,2013-01-10 18:20:00,
2013-01-10 12:25:00,61.2,60.0,30.25,SSE,165,5.0,7.0,96,0.00,,OVC013,0.25,VWS V14.01,2013-01-10 18:25:00,
2013-01-10 12:30:00,61.3,60.2,30.25,SSE,161,5.0,8.0,96,0.00,,OVC013,0.25,VWS V14.01,2013-01-10 18:30:00,
2013-01-10 12:35:00,61.4,60.2,30.25,SSE,159,0.0,3.0,96,0.00,,OVC013,0.25,VWS V14.01,2013-01-10 18:35:00,
2013-01-10 12:40:00,61.4,60.0,30.25,SSE,152,5.0,5.0,95,0.00,,OVC013,0.25,VWS V14.01,2013-01-10 18:40:00,
2013-01-10 12:45:00,61.5,60.1,30.24,SSE,154,4.0,6.0,95,0.00,,OVC013,0.25,VWS V14.01,2013-01-10 18:45:00,
2013-01-10 12:50:00,61.5,60.3,30.24,South,170,0.0,4.0,96,0.00,,OVC013,0.25,VWS V14.01,2013-01-10 18:50:00,
2013-01-10 12:55:00,61.6,60.2,30.24,SSE,163,0.0,0.0,95,0.00,,OVC013,0.25,VWS V14.01,2013-01-10 18:55:00,
2013-01-10 13:00:00,61.7,60.3,30.24,South,184,0.0,4.0,95,0.00,,OVC013,0.25,VWS V14.01,2013-01-10 19:00:00,
2013-01-10 13:05:00,61.8,60.7,30.24,South,178,0.0,6.0,96,0.00,,OVC013,0.25,VWS V14.01,2013-01-10 19:05:00,
2013-01-10 13:10:00,62.0,60.6,30.25,SSE,160,0.0,0.0,95,0.00,,OVC013,0.25,VWS V14.01,2013-01-10 19:10:00,
2013-01-10 13:15:00,62.1,61.0,30.24,SSE,168,1.0,3.0,96,0.00,,OVC013,0.25,VWS V14.01,2013-01-10 19:15:00,
2013-01-10 13:20:00,62.2,61.0,30.24,South,184,0.0,0.0,96,0.00,,OVC013,0.25,VWS V14.01,2013-01-10 19:20:00,
2013-01-10 13:25:00,62.3,60.8,30.24,SSE,166,8.0,9.0,95,0.00,,OVC013,0.25,VWS V14.01,2013-01-10 19:25:00,
2013-01-10 13:30:00,62.3,60.8,30.24,SSE,159,7.0,7.0,95,0.00,,OVC013,0.25,VWS V14.01,2013-01-10 19:30:00,
2013-01-10 13:35:00,62.4,61.0,30.24,SSE,156,4.0,8.0,95,0.00,,OVC013,0.25,VWS V14.01,2013-01-10 19:35:00,
2013-01-10 13:40:00,62.4,61.0,30.24,SSE,168,0.0,4.0,95,0.00,,OVC013,0.25,VWS V14.01,2013-01-10 19:40:00,
2013-01-10 13:45:00,62.5,60.8,30.24,SSE,160,2.0,7.0,94,0.00,,OVC013,0.25,VWS V14.01,2013-01-10 19:45:00,
2013-01-10 13:50:00,62.5,60.8,30.24,SW,225,0.0,4.0,94,0.00,,OVC013,0.25,VWS V14.01,2013-01-10 19:50:00,
2013-01-10 13:55:00,62.6,60.8,30.24,SSE,161,2.0,2.0,94,0.00,,OVC013,0.25,VWS V14.01,2013-01-10 19:55:00,
2013-01-10 14:00:00,62.6,60.8,30.24,SSE,155,0.0,3.0,94,0.00,,OVC015,0.25,VWS V14.01,2013-01-10 20:00:00,
2013-01-10 14:05:00,62.6,60.8,30.24,SSE,162,0.0,2.0,94,0.00,,OVC015,0.25,VWS V14.01,2013-01-10 20:05:00,
2013-01-10 14:10:00,62.6,60.5,30.24,SSE,166,0.0,5.0,93,0.00,,OVC015,0.25,VWS V14.01,2013-01-10 20:10:00,
2013-01-10 14:15:00,62.6,60.8,30.24,South,178,0.0,3.0,94,0.00,,OVC015,0.25,VWS V14.01,2013-01-10 20:15:00,
2013-01-10 14:20:00,62.6,60.5,30.24,South,181,0.0,6.0,93,0.00,,OVC015,0.25,VWS V14.01,2013-01-10 20:20:00,
2013-01-10 14:25:00,62.6,60.8,30.24,SSE,159,0.0,0.0,94,0.00,,OVC015,0.25,VWS V14.01,2013-01-10 20:25:00,
2013-01-10 14:30:00,62.5,60.8,30.23,SSE,161,2.0,2.0,94,0.00,,OVC015,0.25,VWS V14.01,2013-01-10 20:30:00,
2013-01-10 14:35:00,62.5,60.8,30.23,South,183,0.0,3.0,94,0.00,,OVC015,0.25,VWS V14.01,2013-01-10 20:35:00,
2013-01-10 14:40:00,62.4,60.7,30.23,SSE,157,0.0,0.0,94,0.00,,OVC015,0.25,VWS V14.01,2013-01-10 20:40:00,
2013-01-10 14:45:00,62.4,60.7,30.23,SSE,159,4.0,4.0,94,0.00,,OVC015,0.25,VWS V14.01,2013-01-10 20:45:00,
2013-01-10 14:50:00,62.4,60.7,30.23,SSE,159,2.0,6.0,94,0.00,,OVC015,0.25,VWS V14.01,2013-01-10 20:50:00,
2013-01-10 14:55:00,62.3,60.6,30.23,SSE,150,1.0,3.0,94,0.00,,OVC015,0.25,VWS V14.01,2013-01-10 20:55:00,
2013-01-10 15:00:00,62.3,60.6,30.23,SSE,156,4.0,5.0,94,0.00,,OVC019,0.25,VWS V14.01,2013-01-10 21:00:00,
2013-01-10 15:05:00,62.3,60.8,30.23,South,179,3.0,3.0,95,0.00,,OVC019,0.25,VWS V14.01,2013-01-10 21:05:00,
2013-01-10 15:10:00,62.2,60.8,30.23,SSE,154,0.0,7.0,95,0.00,,OVC019,0.25,VWS V14.01,2013-01-10 21:10:00,
2013-01-10 15:15:00,62.2,60.8,30.23,SSE,157,2.0,2.0,95,0.00,,OVC019,0.25,VWS V14.01,2013-01-10 21:15:00,
2013-01-10 15:20:00,62.2,60.8,30.23,SSE,162,2.0,4.0,95,0.00,,OVC019,0.25,VWS V14.01,2013-01-10 21:20:00,
2013-01-10 15:25:00,62.2,60.8,30.23,SSE,152,4.0,6.0,95,0.00,,OVC019,0.25,VWS V14.01,2013-01-10 21:25:00,
2013-01-10 15:30:00,62.2,61.0,30.23,SSE,153,6.0,6.0,96,0.00,,OVC019,0.25,VWS V14.01,2013-01-10 21:30:00,
2013-01-10 15:35:00,62.3,60.8,30.23,South,171,0.0,5.0,95,0.00,,OVC019,0.25,VWS V14.01,2013-01-10 21:35:00,
2013-01-10 15:40:00,62.3,61.2,30.23,SSE,149,6.0,6.0,96,0.00,,OVC019,0.25,VWS V14.01,2013-01-10 21:40:00,
2013-01-10 15:45:00,62.3,61.2,30.22,SSE,151,2.0,2.0,96,0.00,,OVC019,0.25,VWS V14.01,2013-01-10 21:45:00,
2013-01-10 15:50:00,62.3,61.2,30.22,SSE,155,0.0,4.0,96,0.00,,OVC019,0.25,VWS V14.01,2013-01-10 21:50:00,
2013-01-10 15:55:00,62.3,61.2,30.22,SSE,168,5.0,7.0,96,0.00,,OVC019,0.25,VWS V14.01,2013-01-10 21:55:00,
2013-01-10 16:00:00,62.3,61.2,30.22,SSE,152,0.0,6.0,96,0.00,,OVC017,0.25,VWS V14.01,2013-01-10 22:00:00,
2013-01-10 16:05:00,62.3,61.2,30.22,SSE,148,0.0,5.0,96,0.00,,OVC017,0.49,VWS V14.01,2013-01-10 22:05:00,
2013-01-10 16:10:00,62.3,61.2,30.21,SSE,155,6.0,6.0,96,0.00,,OVC017,0.25,VWS V14.01,2013-01-10 22:10:00,
2013-01-10 16:15:00,62.3,61.2,30.21,South,170,1.0,1.0,96,0.00,,OVC017,0.25,VWS V14.01,2013-01-10 22:15:00,
2013-01-10 16:20:00,62.3,61.4,30.21,South,178,0.0,0.0,97,0.00,,OVC017,0.25,VWS V14.01,2013-01-10 22:20:00,
2013-01-10 16:25:00,62.3,61.2,30.21,SSE,158,6.0,7.0,96,0.00,,OVC017,0.25,VWS V14.01,2013-01-10 22:25:00,
2013-01-10 16:30:00,62.3,61.4,30.21,South,182,0.0,5.0,97,0.00,,OVC017,0.25,VWS V14.01,2013-01-10 22:30:00,
2013-01-10 16:35:00,62.3,61.2,30.20,SSE,154,11.0,11.0,96,0.00,,OVC017,0.25,VWS V14.01,2013-01-10 22:35:00,
2013-01-10 16:40:00,62.3,61.2,30.21,SSE,153,7.0,10.0,96,0.00,,OVC017,0.25,VWS V14.01,2013-01-10 22:40:00,
2013-01-10 16:45:00,62.4,61.2,30.20,SSE,156,2.0,5.0,96,0.00,,OVC017,0.25,VWS V14.01,2013-01-10 22:45:00,
2013-01-10 16:50:00,62.4,61.2,30.20,SSE,153,3.0,6.0,96,0.00,,OVC017,0.25,VWS V14.01,2013-01-10 22:50:00,
2013-01-10 16:55:00,62.4,61.2,30.19,SSE,156,2.0,6.0,96,0.00,,OVC017,0.25,VWS V14.01,2013-01-10 22:55:00,
2013-01-10 17:00:00,62.4,61.2,30.19,SSE,153,5.0,7.0,96,0.00,,OVC015,0.25,VWS V14.01,2013-01-10 23:00:00,
2013-01-10 17:05:00,62.4,61.2,30.19,SSE,160,0.0,3.0,96,0.00,,OVC015,0.25,VWS V14.01,2013-01-10 23:05:00,
2013-01-10 17:10:00,62.3,61.2,30.18,SSE,159,1.0,7.0,96,0.00,,OVC015,0.25,VWS V14.01,2013-01-10 23:10:00,
2013-01-10 17:15:00,62.3,61.2,30.18,SSE,151,8.0,12.0,96,0.00,,OVC015,0.25,VWS V14.01,2013-01-10 23:15:00,
2013-01-10 17:21:00,62.2,61.0,30.18,SE,145,7.0,7.0,96,0.00,,OVC015,0.25,VWS V14.01,2013-01-10 23:21:00,
2013-01-10 17:26:00,62.1,60.7,30.18,SSE,168,6.0,10.0,95,0.00,,OVC015,0.25,VWS V14.01,2013-01-10 23:26:00,
2013-01-10 17:31:00,62.1,60.7,30.17,SSE,162,4.0,6.0,95,0.00,,OVC015,0.25,VWS V14.01,2013-01-10 23:31:00,
2013-01-10 17:36:00,62.0,60.6,30.16,SSE,148,6.0,9.0,95,0.00,,OVC015,0.25,VWS V14.01,2013-01-10 23:36:00,
2013-01-10 17:41:00,62.0,60.8,30.16,SSE,152,2.0,7.0,96,0.00,,BKN200,0.25,VWS V14.01,2013-01-10 23:41:00,
2013-01-10 17:46:00,62.0,60.6,30.16,SSE,154,4.0,8.0,95,0.00,,BKN200,0.25,VWS V14.01,2013-01-10 23:46:00,
2013-01-10 17:51:00,62.0,60.8,30.15,SSE,164,1.0,10.0,96,0.00,,BKN200,0.25,VWS V14.01,2013-01-10 23:51:00,
2013-01-10 17:56:00,61.9,60.5,30.15,SE,144,1.0,12.0,95,0.00,,BKN200,0.25,VWS V14.01,2013-01-10 23:56:00,
2013-01-10 18:01:00,61.8,60.7,30.15,SSE,158,8.0,11.0,96,0.00,,BKN200,0.25,VWS V14.01,2013-01-11 00:01:00,
2013-01-10 18:06:00,61.8,60.4,30.14,SSE,151,7.0,9.0,95,0.00,,BKN200,0.25,VWS V14.01,2013-01-11 00:06:00,
2013-01-10 18:11:00,61.8,60.7,30.14,SSE,147,4.0,7.0,96,0.00,,BKN200,0.25,VWS V14.01,2013-01-11 00:11:00,
2013-01-10 18:16:00,61.8,60.4,30.14,SSE,150,10.0,15.0,95,0.00,,BKN200,0.25,VWS V14.01,2013-01-11 00:16:00,
2013-01-10 18:21:00,61.8,60.4,30.14,SSE,164,2.0,9.0,95,0.00,,BKN200,0.25,VWS V14.01,2013-01-11 00:21:00,
2013-01-10 18:26:00,61.9,60.5,30.14,SSE,165,2.0,8.0,95,0.00,,BKN200,0.25,VWS V14.01,2013-01-11 00:26:00,
2013-01-10 18:31:00,62.0,60.6,30.13,SSE,168,7.0,15.0,95,0.00,,BKN200,0.25,VWS V14.01,2013-01-11 00:31:00,
2013-01-10 18:36:00,62.0,60.3,30.13,SSE,162,2.0,10.0,94,0.00,,OVC200,0.25,VWS V14.01,2013-01-11 00:36:00,
2013-01-10 18:41:00,62.1,60.4,30.13,SSE,164,0.0,5.0,94,0.00,,OVC200,0.25,VWS V14.01,2013-01-11 00:41:00,
2013-01-10 18:46:00,62.1,60.4,30.12,SE,139,8.0,11.0,94,0.00,,OVC200,0.25,VWS V14.01,2013-01-11 00:46:00,
2013-01-10 18:50:00,62.0,60.8,30.15,SSE,158,6.0,12.0,96,0.00,,OVC200,0.25,VWS V14.01,2013-01-11 00:50:00,
2013-01-10 18:55:00,61.9,60.5,30.15,SSE,158,7.0,15.0,95,0.00,,OVC200,0.25,VWS V14.01,2013-01-11 00:55:00,
2013-01-10 19:00:00,61.9,60.5,30.15,SSE,158,6.0,15.0,95,0.00,,OVC200,0.25,VWS V14.01,2013-01-11 01:00:00,
2013-01-10 19:05:00,61.8,60.4,30.15,SSE,158,6.0,13.0,95,0.00,,OVC200,0.25,VWS V14.01,2013-01-11 01:05:00,
2013-01-10 19:17:00,62.4,60.3,30.09,SSE,158,10.0,20.0,93,0.00,,OVC200,0.25,VWS V14.01,2013-01-11 01:17:00,
2013-01-10 19:22:00,62.6,59.6,30.08,SSE,151,18.0,21.0,90,0.00,,OVC220,0.25,VWS V14.01,2013-01-11 01:22:00,
2013-01-10 19:27:00,62.7,59.4,30.08,SSE,149,8.0,21.0,89,0.00,,OVC220,0.25,VWS V14.01,2013-01-11 01:27:00,
2013-01-10 19:32:00,62.8,59.5,30.08,SSE,156,12.0,25.0,89,0.00,,OVC220,0.25,VWS V14.01,2013-01-11 01:32:00,
2013-01-10 19:37:00,62.9,59.6,30.08,SSE,158,8.0,25.0,89,0.00,,OVC220,0.25,VWS V14.01,2013-01-11 01:37:00,
2013-01-10 19:42:00,62.9,59.6,30.08,SSE,162,9.0,25.0,89,0.00,,OVC220,0.25,VWS V14.01,2013-01-11 01:42:00,
2013-01-10 19:47:00,62.9,59.6,30.08,SSE,156,11.0,25.0,89,0.00,,OVC220,0.25,VWS V14.01,2013-01-11 01:47:00,
2013-01-10 19:52:00,63.0,59.4,30.08,SSE,161,15.0,30.0,88,0.00,,OVC220,0.25,VWS V14.01,2013-01-11 01:52:00,
2013-01-10 19:57:00,63.1,59.2,30.08,SSE,165,5.0,30.0,87,0.00,,BKN200,0.25,VWS V14.01,2013-01-11 01:57:00,
2013-01-10 20:02:00,63.2,59.3,30.07,SSE,154,8.0,30.0,87,0.00,,BKN200,0.25,VWS V14.01,2013-01-11 02:02:00,
2013-01-10 20:07:00,63.2,59.3,30.07,South,169,8.0,30.0,87,0.00,,BKN200,0.25,VWS V14.01,2013-01-11 02:07:00,
2013-01-10 20:12:00,63.2,59.0,30.07,SSE,153,11.0,30.0,86,0.00,,BKN200,0.25,VWS V14.01,2013-01-11 02:12:00,
2013-01-10 20:17:00,63.3,59.0,30.06,SSE,147,9.0,19.0,86,0.00,,BKN200,0.25,VWS V14.01,2013-01-11 02:17:00,
2013-01-10 20:22:00,63.2,59.0,30.06,South,171,7.0,18.0,86,0.00,,BKN200,0.25,VWS V14.01,2013-01-11 02:22:00,
2013-01-10 20:27:00,63.2,59.0,30.07,SSE,155,11.0,16.0,86,0.00,,BKN200,0.25,VWS V14.01,2013-01-11 02:27:00,
2013-01-10 20:32:00,63.2,59.0,30.07,South,174,4.0,10.0,86,0.00,,BKN200,0.25,VWS V14.01,2013-01-11 02:32:00,
2013-01-10 20:37:00,63.1,58.8,30.07,SSW,192,7.0,19.0,86,0.00,,BKN200,0.25,VWS V14.01,2013-01-11 02:37:00,
2013-01-10 20:42:00,63.2,59.0,30.07,SSW,197,11.0,15.0,86,0.00,,BKN200,0.25,VWS V14.01,2013-01-11 02:42:00,
2013-01-10 20:47:00,63.2,59.0,30.07,South,188,14.0,20.0,86,0.00,,BKN200,0.25,VWS V14.01,2013-01-11 02:47:00,
2013-01-10 20:52:00,63.2,58.6,30.07,SSE,168,12.0,19.0,85,0.00,,BKN200,0.25,VWS V14.01,2013-01-11 02:52:00,
2013-01-10 20:57:00,63.2,59.0,30.07,SSE,166,6.0,14.0,86,0.00,,BKN200,0.25,VWS V14.01,2013-01-11 02:57:00,
2013-01-10 21:02:00,63.3,59.0,30.07,SSW,196,5.0,11.0,86,0.00,,BKN200,0.25,VWS V14.01,2013-01-11 03:02:00,
2013-01-10 21:07:00,63.3,58.7,30.07,South,190,4.0,8.0,85,0.00,,BKN200,0.25,VWS V14.01,2013-01-11 03:07:00,
2013-01-10 21:12:00,63.3,58.7,30.07,South,182,9.0,15.0,85,0.00,,BKN200,0.25,VWS V14.01,2013-01-11 03:12:00,
2013-01-10 21:17:00,63.3,58.7,30.06,South,188,7.0,11.0,85,0.00,,BKN200,0.25,VWS V14.01,2013-01-11 03:17:00,
2013-01-10 21:22:00,63.3,59.0,30.07,South,175,8.0,16.0,86,0.00,,BKN200,0.25,VWS V14.01,2013-01-11 03:22:00,
2013-01-10 21:27:00,63.3,58.7,30.07,SSE,163,7.0,15.0,85,0.00,,BKN200,0.25,VWS V14.01,2013-01-11 03:27:00,
2013-01-10 21:32:00,63.4,58.8,30.06,SSW,194,10.0,12.0,85,0.00,,BKN200,0.25,VWS V14.01,2013-01-11 03:32:00,
2013-01-10 21:37:00,63.4,58.8,30.06,South,170,9.0,13.0,85,0.00,,BKN200,0.25,VWS V14.01,2013-01-11 03:37:00,
2013-01-10 21:42:00,63.4,58.8,30.05,SSE,162,4.0,13.0,85,0.00,,BKN200,0.25,VWS V14.01,2013-01-11 03:42:00,
2013-01-10 21:47:00,63.5,58.9,30.05,South,183,8.0,14.0,85,0.00,,BKN200,0.25,VWS V14.01,2013-01-11 03:47:00,
2013-01-10 21:52:00,63.5,58.9,30.05,SSE,162,4.0,12.0,85,0.00,,BKN200,0.25,VWS V14.01,2013-01-11 03:52:00,
2013-01-10 21:58:00,63.6,59.0,30.05,SSW,204,3.0,12.0,85,0.00,,BKN150,0.25,VWS V14.01,2013-01-11 03:58:00,
2013-01-10 22:03:00,63.6,59.0,30.04,South,181,6.0,19.0,85,0.00,,BKN150,0.25,VWS V14.01,2013-01-11 04:03:00,
2013-01-10 22:08:00,63.6,59.0,30.06,South,189,8.0,10.0,85,0.00,,BKN150,0.25,VWS V14.01,2013-01-11 04:08:00,
2013-01-10 22:13:00,63.6,59.0,30.06,SSE,168,3.0,12.0,85,0.00,,BKN150,0.25,VWS V14.01,2013-01-11 04:13:00,
2013-01-10 22:18:00,63.6,59.0,30.07,South,191,6.0,13.0,85,0.00,,BKN150,0.25,VWS V14.01,2013-01-11 04:18:00,
2013-01-10 22:23:00,63.6,59.0,30.06,South,179,6.0,10.0,85,0.00,,BKN150,0.25,VWS V14.01,2013-01-11 04:23:00,
2013-01-10 22:28:00,63.6,59.0,30.06,South,171,6.0,12.0,85,0.00,,BKN150,0.25,VWS V14.01,2013-01-11 04:28:00,
2013-01-10 22:33:00,63.6,59.0,30.05,SSE,163,0.0,8.0,85,0.00,,BKN150,0.25,VWS V14.01,2013-01-11 04:33:00,
2013-01-10 22:38:00,63.6,59.0,30.04,SSW,200,0.0,8.0,85,0.00,,BKN150,0.25,VWS V14.01,2013-01-11 04:38:00,
2013-01-10 22:43:00,63.6,59.0,30.05,SSE,165,5.0,8.0,85,0.00,,BKN150,0.25,VWS V14.01,2013-01-11 04:43:00,
2013-01-10 22:48:00,63.6,59.0,30.05,SSW,213,2.0,11.0,85,0.00,,BKN150,0.25,VWS V14.01,2013-01-11 04:48:00,
2013-01-10 22:53:00,63.6,59.0,30.05,South,174,8.0,10.0,85,0.00,,BKN150,0.25,VWS V14.01,2013-01-11 04:53:00,
2013-01-10 22:58:00,63.7,59.1,30.05,SSW,206,3.0,12.0,85,0.00,,OVC100,0.25,VWS V14.01,2013-01-11 04:58:00,
2013-01-10 23:00:00,63.7,59.1,30.05,SSW,210,10.0,10.0,85,0.00,,OVC100,0.25,VWS V14.01,2013-01-11 05:00:00,
2013-01-10 23:03:00,63.7,59.1,30.05,SSE,157,3.0,12.0,85,0.00,,OVC100,0.25,VWS V14.01,2013-01-11 05:03:00,
2013-01-10 23:08:00,63.8,59.2,30.05,SSW,196,6.0,9.0,85,0.00,,OVC110,0.25,VWS V14.01,2013-01-11 05:08:00,
2013-01-10 23:13:00,63.9,59.3,30.05,SSW,212,4.0,13.0,85,0.00,,OVC110,0.25,VWS V14.01,2013-01-11 05:13:00,
2013-01-10 23:18:00,64.0,59.4,30.04,SSW,198,8.0,15.0,85,0.00,,OVC110,0.25,VWS V14.01,2013-01-11 05:18:00,
2013-01-10 23:23:00,64.1,59.5,30.05,SSW,198,8.0,10.0,85,0.00,,OVC110,0.25,VWS V14.01,2013-01-11 05:23:00,
2013-01-10 23:28:00,64.2,59.6,30.05,SSW,200,7.0,17.0,85,0.00,,OVC110,0.25,VWS V14.01,2013-01-11 05:28:00,
2013-01-10 23:33:00,64.2,59.3,30.05,SSW,198,0.0,12.0,84,0.00,,OVC110,0.25,VWS V14.01,2013-01-11 05:33:00,
2013-01-10 23:38:00,64.3,59.4,30.05,SSW,200,4.0,8.0,84,0.00,,OVC110,0.25,VWS V14.01,2013-01-11 05:38:00,
2013-01-10 23:43:00,64.4,59.5,30.05,South,174,6.0,11.0,84,0.00,,OVC110,0.25,VWS V14.01,2013-01-11 05:43:00,
2013-01-10 23:48:00,64.5,59.6,30.05,South,191,12.0,14.0,84,0.00,,OVC110,0.25,VWS V14.01,2013-01-11 05:48:00,
2013-01-10 23:53:00,64.6,59.7,30.05,South,182,4.0,13.0,84,0.00,,OVC110,0.25,VWS V14.01,2013-01-11 05:53:00,
2013-01-10 23:58:00,64.6,59.3,30.04,SSW,203,6.0,13.0,83,0.00,,OVC030,0.25,VWS V14.01,2013-01-11 05:58:00,